Air Navigation Services of Czech Republic
Airport: LKKB Updated:  07.02.2023 13:29:31  UTC
 METAR LKKB 07.02. 13:30 ...
METAR LKKB 071330Z VRB02KT CAVOK M01/M06 Q1039 NOSIG RMK BLU BLU=
 TAF LKKB 07.02. 11:00 ...
TAF LKKB 071100Z 0712/0812 VRB02KT CAVOK      BECMG 0721/0723 8000 NSC      BECMG 0800/0802 5000 BR      TEMPO 0803/0807 2000 BR SCT003      PROB40 TEMPO 0804/0807 0600 FZFG VV001      BECMG 0809/0811 CAVOK=